Time;durP1;ratioP1;P1;durP2;ratioP2;P2;SDS_P1;SDS_P2;PMS_P1;PMS_P2;Temp;Humidity;BMP_temperature;BMP_pressure;BME280_temperature;BME280_humidity;BME280_pressure;Samples;Min_cycle;Max_cycle;Signal;HPM_P1;HPM_P2
2019/10/05 00:02:03;;;;;;;1.31;1.20;;;;;;;19.71;55.55;99744.47;;;;-52
2019/10/05 00:05:02;;;;;;;1.25;1.15;;;;;;;19.73;55.53;99743.73;;;;-52
2019/10/05 00:08:02;;;;;;;1.20;1.10;;;;;;;19.71;55.52;99747.72;;;;-52
2019/10/05 00:11:02;;;;;;;2.23;1.39;;;;;;;19.71;55.57;99752.07;;;;-52
2019/10/05 00:14:02;;;;;;;1.20;1.10;;;;;;;19.71;55.56;99754.22;;;;-52
2019/10/05 00:17:09;;;;;;;1.89;1.09;;;;;;;19.71;55.56;99753.21;;;;-53
2019/10/05 00:20:15;;;;;;;1.29;1.10;;;;;;;19.71;55.53;99753.48;;;;-52
2019/10/05 00:24:02;;;;;;;1.17;1.07;;;;;;;19.69;55.57;99761.89;;;;-52
2019/10/05 00:27:02;;;;;;;1.43;1.16;;;;;;;19.69;55.58;99758.14;;;;-53
2019/10/05 00:30:02;;;;;;;1.25;1.10;;;;;;;19.69;55.58;99761.83;;;;-52
2019/10/05 00:33:02;;;;;;;1.31;1.19;;;;;;;19.69;55.58;99760.35;;;;-52
2019/10/05 00:36:02;;;;;;;1.43;1.20;;;;;;;19.69;55.58;99766.22;;;;-52
2019/10/05 00:39:02;;;;;;;1.22;1.12;;;;;;;19.69;55.55;99766.48;;;;-52
2019/10/05 00:42:02;;;;;;;1.35;1.21;;;;;;;19.69;55.51;99771.70;;;;-52
2019/10/05 00:45:02;;;;;;;1.26;1.16;;;;;;;19.68;55.54;99760.52;;;;-52
2019/10/05 00:48:02;;;;;;;1.21;1.10;;;;;;;19.68;55.56;99760.45;;;;-52
2019/10/05 00:51:02;;;;;;;1.29;1.19;;;;;;;19.69;55.52;99757.67;;;;-52
2019/10/05 00:54:02;;;;;;;1.19;1.12;;;;;;;19.68;55.54;99757.57;;;;-52
2019/10/05 00:57:02;;;;;;;1.30;1.20;;;;;;;19.67;55.56;99762.39;;;;-52
2019/10/05 01:00:01;;;;;;;1.37;1.14;;;;;;;19.66;55.58;99756.44;;;;-52
2019/10/05 01:03:02;;;;;;;1.37;1.15;;;;;;;19.66;55.57;99756.50;;;;-52
2019/10/05 01:06:02;;;;;;;1.29;1.14;;;;;;;19.66;55.58;99752.75;;;;-53
2019/10/05 01:09:02;;;;;;;1.40;1.30;;;;;;;19.66;55.57;99762.06;;;;-52
2019/10/05 01:12:02;;;;;;;1.35;1.20;;;;;;;19.66;55.58;99758.45;;;;-53
2019/10/05 01:15:02;;;;;;;1.23;1.13;;;;;;;19.68;55.55;99761.48;;;;-53
2019/10/05 01:18:02;;;;;;;1.30;1.20;;;;;;;19.67;55.54;99761.83;;;;-53
2019/10/05 01:21:02;;;;;;;1.21;1.11;;;;;;;19.65;55.58;99766.05;;;;-52
2019/10/05 01:24:02;;;;;;;1.30;1.20;;;;;;;19.67;55.54;99768.86;;;;-52
2019/10/05 01:27:02;;;;;;;1.30;1.20;;;;;;;19.66;55.57;99766.72;;;;-52
2019/10/05 01:30:03;;;;;;;1.56;1.27;;;;;;;19.65;55.56;99764.44;;;;-52
2019/10/05 01:33:02;;;;;;;1.33;1.21;;;;;;;19.66;55.55;99769.67;;;;-53
2019/10/05 01:36:02;;;;;;;2.27;1.20;;;;;;;19.65;55.57;99767.13;;;;-53
2019/10/05 01:39:02;;;;;;;1.17;1.07;;;;;;;19.65;55.57;99773.98;;;;-53
2019/10/05 01:42:02;;;;;;;1.41;1.20;;;;;;;19.64;55.58;99772.45;;;;-53
2019/10/05 01:45:02;;;;;;;1.56;1.20;;;;;;;19.64;55.56;99772.28;;;;-54
2019/10/05 01:48:02;;;;;;;1.39;1.23;;;;;;;19.64;55.57;99775.40;;;;-52
2019/10/05 01:51:02;;;;;;;1.22;1.12;;;;;;;19.64;55.58;99771.44;;;;-52
2019/10/05 01:54:02;;;;;;;1.17;1.07;;;;;;;19.63;55.58;99778.11;;;;-52
2019/10/05 01:57:02;;;;;;;1.27;1.17;;;;;;;19.62;55.59;99778.92;;;;-53
2019/10/05 02:00:02;;;;;;;1.37;1.27;;;;;;;19.63;55.55;99777.88;;;;-52
2019/10/05 02:03:02;;;;;;;1.80;1.09;;;;;;;19.64;55.57;99780.05;;;;-53
2019/10/05 02:06:02;;;;;;;1.48;1.29;;;;;;;19.62;55.58;99773.32;;;;-52
2019/10/05 02:09:02;;;;;;;1.35;1.17;;;;;;;19.64;55.54;99773.89;;;;-52
2019/10/05 02:12:02;;;;;;;1.36;1.20;;;;;;;19.62;55.58;99774.39;;;;-52
2019/10/05 02:15:02;;;;;;;1.22;1.12;;;;;;;19.62;55.59;99770.61;;;;-52
2019/10/05 02:18:02;;;;;;;1.66;1.07;;;;;;;19.62;55.57;99775.23;;;;-53
2019/10/05 02:21:02;;;;;;;1.27;1.17;;;;;;;19.62;55.58;99773.63;;;;-52
2019/10/05 02:24:02;;;;;;;1.09;0.99;;;;;;;19.61;55.60;99771.02;;;;-52
2019/10/05 02:27:02;;;;;;;1.20;1.09;;;;;;;19.61;55.58;99771.68;;;;-52
2019/10/05 02:30:02;;;;;;;1.23;1.10;;;;;;;19.61;55.58;99772.69;;;;-52
2019/10/05 02:33:02;;;;;;;1.30;1.20;;;;;;;19.61;55.55;99773.63;;;;-53
2019/10/05 02:36:02;;;;;;;1.23;1.13;;;;;;;19.61;55.56;99770.51;;;;-52
2019/10/05 02:39:02;;;;;;;1.45;1.13;;;;;;;19.61;55.57;99770.17;;;;-52
2019/10/05 02:42:02;;;;;;;1.32;1.19;;;;;;;19.61;55.55;99766.92;;;;-52
2019/10/05 02:45:02;;;;;;;1.39;1.21;;;;;;;19.61;55.58;99768.33;;;;-53
2019/10/05 02:48:04;;;;;;;1.47;1.30;;;;;;;19.60;55.60;99773.32;;;;-52
2019/10/05 02:51:03;;;;;;;1.80;1.27;;;;;;;19.59;55.59;99772.55;;;;-53
2019/10/05 02:54:02;;;;;;;1.74;1.17;;;;;;;19.60;55.60;99772.15;;;;-52
2019/10/05 02:57:02;;;;;;;1.33;1.21;;;;;;;19.59;55.60;99767.69;;;;-53
2019/10/05 03:00:02;;;;;;;1.17;1.07;;;;;;;19.59;55.57;99766.86;;;;-53
2019/10/05 03:03:02;;;;;;;1.29;1.19;;;;;;;19.58;55.59;99765.66;;;;-52
2019/10/05 03:06:02;;;;;;;1.27;1.17;;;;;;;19.59;55.60;99766.92;;;;-52
2019/10/05 03:09:05;;;;;;;1.21;1.11;;;;;;;19.60;55.52;99772.75;;;;-52
2019/10/05 03:12:02;;;;;;;1.19;1.09;;;;;;;19.59;55.60;99770.78;;;;-53
2019/10/05 03:15:02;;;;;;;1.41;1.24;;;;;;;19.58;55.60;99765.72;;;;-54
2019/10/05 03:18:02;;;;;;;1.25;1.13;;;;;;;19.57;55.58;99763.95;;;;-53
2019/10/05 03:21:02;;;;;;;1.24;1.14;;;;;;;19.58;55.59;99765.72;;;;-52
2019/10/05 03:24:02;;;;;;;1.53;1.21;;;;;;;19.57;55.59;99769.14;;;;-52
2019/10/05 03:27:02;;;;;;;1.27;1.17;;;;;;;19.58;55.59;99772.35;;;;-52
2019/10/05 03:30:02;;;;;;;1.30;1.20;;;;;;;19.58;55.60;99774.43;;;;-52
2019/10/05 03:33:02;;;;;;;1.10;1.04;;;;;;;19.58;55.57;99777.78;;;;-53
2019/10/05 03:36:02;;;;;;;1.23;1.11;;;;;;;19.58;55.58;99782.06;;;;-53
2019/10/05 03:39:03;;;;;;;1.22;1.12;;;;;;;19.59;55.56;99785.52;;;;-54
2019/10/05 03:42:02;;;;;;;1.23;1.13;;;;;;;19.58;55.59;99786.09;;;;-53
2019/10/05 03:45:02;;;;;;;1.20;1.12;;;;;;;19.58;55.58;99788.16;;;;-53
2019/10/05 03:48:02;;;;;;;1.40;1.30;;;;;;;19.58;55.57;99797.70;;;;-52
2019/10/05 03:51:02;;;;;;;1.69;1.12;;;;;;;19.57;55.60;99801.46;;;;-52
2019/10/05 03:54:02;;;;;;;1.22;1.12;;;;;;;19.56;55.58;99802.84;;;;-52
2019/10/05 03:57:02;;;;;;;1.37;1.19;;;;;;;19.56;55.62;99812.05;;;;-53
2019/10/05 04:00:02;;;;;;;1.33;1.20;;;;;;;19.56;55.58;99811.47;;;;-52
2019/10/05 04:03:02;;;;;;;1.21;1.11;;;;;;;19.55;55.60;99815.53;;;;-52
2019/10/05 04:06:02;;;;;;;1.35;1.12;;;;;;;19.57;55.58;99817.70;;;;-52
2019/10/05 04:09:02;;;;;;;1.28;1.19;;;;;;;19.56;55.60;99815.49;;;;-52
2019/10/05 04:12:07;;;;;;;1.29;1.13;;;;;;;19.57;55.59;99814.69;;;;-52
2019/10/05 04:15:10;;;;;;;1.49;1.29;;;;;;;19.56;55.60;99820.42;;;;-53
2019/10/05 04:21:02;;;;;;;1.24;1.15;;;;;;;19.56;55.61;99825.61;;;;-52
2019/10/05 04:24:02;;;;;;;1.21;1.10;;;;;;;19.55;55.57;99825.84;;;;-52
2019/10/05 04:27:02;;;;;;;1.21;1.13;;;;;;;19.55;55.59;99821.99;;;;-52
2019/10/05 04:30:02;;;;;;;1.20;1.10;;;;;;;19.55;55.58;99824.00;;;;-53
2019/10/05 04:33:02;;;;;;;1.31;1.21;;;;;;;19.55;55.57;99826.52;;;;-53
2019/10/05 04:36:02;;;;;;;1.51;1.20;;;;;;;19.55;55.60;99828.77;;;;-52
2019/10/05 04:39:02;;;;;;;1.01;1.00;;;;;;;19.55;55.58;99832.20;;;;-53
2019/10/05 04:42:02;;;;;;;1.30;1.20;;;;;;;19.55;55.59;99839.91;;;;-52
2019/10/05 04:45:02;;;;;;;1.30;1.20;;;;;;;19.56;55.57;99837.17;;;;-52
2019/10/05 04:48:02;;;;;;;1.22;1.09;;;;;;;19.56;55.54;99833.66;;;;-52
2019/10/05 04:51:02;;;;;;;1.31;1.21;;;;;;;19.55;55.58;99838.07;;;;-52
2019/10/05 04:54:02;;;;;;;1.39;1.17;;;;;;;19.53;55.63;99843.59;;;;-52
2019/10/05 04:57:02;;;;;;;1.34;1.10;;;;;;;19.54;55.61;99844.30;;;;-53
2019/10/05 05:00:02;;;;;;;1.05;1.03;;;;;;;19.54;55.58;99853.28;;;;-53
2019/10/05 05:03:02;;;;;;;1.09;1.07;;;;;;;19.53;55.61;99854.92;;;;-52
2019/10/05 05:06:02;;;;;;;1.24;1.14;;;;;;;19.54;55.59;99855.80;;;;-52
2019/10/05 05:09:02;;;;;;;1.09;1.01;;;;;;;19.53;55.57;99856.33;;;;-52
2019/10/05 05:12:02;;;;;;;1.39;1.11;;;;;;;19.53;55.63;99859.84;;;;-49
2019/10/05 05:15:02;;;;;;;1.93;1.12;;;;;;;19.53;55.62;99859.11;;;;-50
2019/10/05 05:18:02;;;;;;;1.21;1.11;;;;;;;19.54;55.58;99857.97;;;;-49
2019/10/05 05:21:02;;;;;;;1.43;1.10;;;;;;;19.53;55.59;99857.27;;;;-50
2019/10/05 05:24:02;;;;;;;1.33;1.16;;;;;;;19.54;55.59;99858.03;;;;-50
2019/10/05 05:27:02;;;;;;;1.25;1.11;;;;;;;19.54;55.57;99861.15;;;;-49
2019/10/05 05:30:02;;;;;;;1.16;1.09;;;;;;;19.52;55.61;99864.43;;;;-50
2019/10/05 05:33:02;;;;;;;1.21;1.15;;;;;;;19.54;55.58;99871.27;;;;-49
2019/10/05 05:36:38;;;;;;;1.63;1.25;;;;;;;19.53;55.61;99876.25;;;;-49
2019/10/05 05:39:03;;;;;;;1.19;1.09;;;;;;;19.52;55.61;99869.79;;;;-49
2019/10/05 05:42:02;;;;;;;1.09;1.06;;;;;;;19.54;55.56;99874.61;;;;-49
2019/10/05 05:45:02;;;;;;;1.16;1.03;;;;;;;19.52;55.62;99879.50;;;;-49
2019/10/05 05:48:02;;;;;;;1.15;1.05;;;;;;;19.52;55.59;99877.22;;;;-50
2019/10/05 05:51:02;;;;;;;1.20;1.10;;;;;;;19.50;55.62;99875.84;;;;-49
2019/10/05 05:54:02;;;;;;;1.17;1.08;;;;;;;19.53;55.60;99886.47;;;;-49
2019/10/05 05:57:02;;;;;;;3.95;1.34;;;;;;;19.54;55.70;99885.60;;;;-49
2019/10/05 06:00:02;;;;;;;2.98;1.29;;;;;;;19.55;55.70;99886.98;;;;-51
2019/10/05 06:03:02;;;;;;;3.85;1.31;;;;;;;19.56;55.83;99892.03;;;;-50
2019/10/05 06:06:02;;;;;;;1.82;1.27;;;;;;;19.55;55.84;99894.02;;;;-50
2019/10/05 06:09:02;;;;;;;1.55;1.17;;;;;;;19.55;55.86;99900.55;;;;-49
2019/10/05 06:12:02;;;;;;;2.87;1.17;;;;;;;19.53;55.88;99903.72;;;;-49
2019/10/05 06:15:02;;;;;;;2.66;1.21;;;;;;;19.53;55.88;99915.38;;;;-49
2019/10/05 06:18:02;;;;;;;1.32;1.20;;;;;;;19.52;55.92;99955.60;;;;-49
2019/10/05 06:21:02;;;;;;;1.99;1.26;;;;;;;19.52;55.87;99949.67;;;;-50
2019/10/05 06:24:02;;;;;;;1.47;1.28;;;;;;;19.51;55.88;99960.03;;;;-49
2019/10/05 06:27:02;;;;;;;1.92;1.33;;;;;;;19.51;55.85;99961.70;;;;-50
2019/10/05 06:30:02;;;;;;;2.04;1.14;;;;;;;19.52;55.84;99970.34;;;;-50
2019/10/05 06:33:02;;;;;;;1.67;1.17;;;;;;;19.51;55.83;99974.42;;;;-50
2019/10/05 06:36:02;;;;;;;1.96;1.32;;;;;;;19.51;55.82;99983.70;;;;-50
2019/10/05 06:39:02;;;;;;;1.54;1.17;;;;;;;19.51;55.79;99992.52;;;;-49
2019/10/05 06:42:02;;;;;;;1.43;1.23;;;;;;;19.51;55.79;100003.06;;;;-57
2019/10/05 06:45:02;;;;;;;1.60;1.31;;;;;;;19.52;55.78;100018.68;;;;-57
2019/10/05 06:48:02;;;;;;;1.64;1.39;;;;;;;19.53;55.74;100027.49;;;;-49
2019/10/05 06:51:02;;;;;;;2.33;1.34;;;;;;;19.52;55.75;100025.72;;;;-50
2019/10/05 06:54:02;;;;;;;2.03;1.37;;;;;;;19.53;55.81;100023.58;;;;-50
2019/10/05 06:57:02;;;;;;;3.27;1.30;;;;;;;19.58;55.68;100020.64;;;;-52
2019/10/05 07:00:02;;;;;;;2.05;1.30;;;;;;;19.60;55.76;100033.05;;;;-49
2019/10/05 07:03:02;;;;;;;2.52;1.30;;;;;;;19.61;55.98;100046.11;;;;-51
2019/10/05 07:06:02;;;;;;;3.23;1.50;;;;;;;19.61;56.11;100046.82;;;;-51
2019/10/05 07:09:02;;;;;;;1.76;1.35;;;;;;;19.65;56.11;100057.98;;;;-51
2019/10/05 07:12:02;;;;;;;1.81;1.33;;;;;;;19.63;56.13;100059.42;;;;-51
2019/10/05 07:15:02;;;;;;;2.07;1.30;;;;;;;19.62;56.11;100064.11;;;;-50
2019/10/05 07:18:02;;;;;;;1.38;1.28;;;;;;;19.61;56.09;100072.45;;;;-52
2019/10/05 07:21:02;;;;;;;1.47;1.37;;;;;;;19.61;56.05;100078.05;;;;-50
2019/10/05 07:24:02;;;;;;;1.83;1.28;;;;;;;19.60;56.00;100074.48;;;;-52
2019/10/05 07:27:02;;;;;;;1.55;1.45;;;;;;;19.60;55.98;100086.88;;;;-52
2019/10/05 07:30:02;;;;;;;2.31;1.35;;;;;;;19.61;55.92;100098.31;;;;-52
2019/10/05 07:33:02;;;;;;;6.34;1.35;;;;;;;19.62;55.94;100105.88;;;;-49
2019/10/05 07:36:02;;;;;;;2.17;1.33;;;;;;;19.63;56.03;100100.47;;;;-49
2019/10/05 07:39:02;;;;;;;1.96;1.20;;;;;;;19.65;56.06;100109.62;;;;-54
2019/10/05 07:42:02;;;;;;;1.44;1.31;;;;;;;19.65;56.17;100112.64;;;;-53
2019/10/05 07:45:02;;;;;;;1.94;1.39;;;;;;;19.64;56.11;100123.39;;;;-54
2019/10/05 07:48:02;;;;;;;2.59;1.40;;;;;;;19.68;56.25;100129.13;;;;-49
2019/10/05 07:51:02;;;;;;;4.10;1.43;;;;;;;19.67;56.16;100136.73;;;;-48
2019/10/05 07:54:02;;;;;;;2.18;1.41;;;;;;;19.67;56.28;100138.58;;;;-49
2019/10/05 07:57:02;;;;;;;3.06;1.57;;;;;;;19.68;56.36;100146.39;;;;-55
2019/10/05 08:00:02;;;;;;;2.91;1.47;;;;;;;19.68;56.40;100146.26;;;;-54
2019/10/05 08:03:02;;;;;;;1.72;1.43;;;;;;;19.70;56.46;100152.56;;;;-50
2019/10/05 08:06:02;;;;;;;2.58;1.50;;;;;;;19.70;56.47;100151.03;;;;-51
2019/10/05 08:09:02;;;;;;;2.01;1.30;;;;;;;19.70;56.48;100154.78;;;;-50
2019/10/05 08:12:02;;;;;;;1.47;1.30;;;;;;;19.70;56.51;100159.23;;;;-53
2019/10/05 08:15:02;;;;;;;2.12;1.20;;;;;;;19.71;56.53;100168.12;;;;-51
2019/10/05 08:18:02;;;;;;;2.01;1.36;;;;;;;19.72;56.62;100180.22;;;;-50
2019/10/05 08:21:02;;;;;;;1.51;1.31;;;;;;;19.72;56.58;100189.27;;;;-51
2019/10/05 08:24:02;;;;;;;2.37;1.21;;;;;;;19.73;56.59;100191.25;;;;-50
2019/10/05 08:27:02;;;;;;;2.06;1.25;;;;;;;19.73;56.58;100191.09;;;;-50
2019/10/05 08:30:02;;;;;;;1.99;1.25;;;;;;;19.73;56.61;100194.20;;;;-50
2019/10/05 08:33:02;;;;;;;1.52;1.38;;;;;;;19.74;56.64;100200.78;;;;-50
2019/10/05 08:36:02;;;;;;;1.85;1.30;;;;;;;19.76;56.62;100208.97;;;;-50
2019/10/05 08:39:03;;;;;;;1.45;1.22;;;;;;;19.78;56.58;100223.45;;;;-50
2019/10/05 08:42:02;;;;;;;3.67;1.37;;;;;;;19.78;56.51;100227.98;;;;-51
2019/10/05 08:45:02;;;;;;;2.10;1.30;;;;;;;19.80;56.43;100233.15;;;;-52
2019/10/05 08:48:02;;;;;;;3.43;1.30;;;;;;;19.80;56.48;100243.53;;;;-52
2019/10/05 08:51:02;;;;;;;3.07;1.40;;;;;;;19.80;56.49;100245.22;;;;-50
2019/10/05 08:54:02;;;;;;;1.72;1.34;;;;;;;19.80;56.52;100252.52;;;;-50
2019/10/05 08:57:02;;;;;;;2.96;1.38;;;;;;;19.79;56.59;100254.50;;;;-50
2019/10/05 09:00:02;;;;;;;1.67;1.35;;;;;;;19.79;56.58;100264.04;;;;-47
2019/10/05 09:03:02;;;;;;;2.19;1.35;;;;;;;19.79;56.62;100280.97;;;;-48
2019/10/05 09:06:02;;;;;;;1.84;1.40;;;;;;;19.81;56.54;100288.25;;;;-48
2019/10/05 09:09:02;;;;;;;2.67;1.30;;;;;;;19.81;56.55;100290.60;;;;-49
2019/10/05 09:12:02;;;;;;;1.45;1.33;;;;;;;19.81;56.53;100299.55;;;;-51
2019/10/05 09:15:02;;;;;;;1.55;1.30;;;;;;;19.82;56.56;100304.78;;;;-51
2019/10/05 09:18:02;;;;;;;1.41;1.27;;;;;;;19.81;56.55;100308.87;;;;-50
2019/10/05 09:21:02;;;;;;;1.83;1.28;;;;;;;19.82;56.48;100307.63;;;;-52
2019/10/05 09:24:01;;;;;;;2.46;1.24;;;;;;;19.83;56.50;100315.37;;;;-52
2019/10/05 09:27:02;;;;;;;1.37;1.20;;;;;;;19.84;56.51;100308.15;;;;-50
2019/10/05 09:30:02;;;;;;;1.41;1.31;;;;;;;19.84;56.50;100321.22;;;;-52
2019/10/05 09:33:02;;;;;;;1.34;1.23;;;;;;;19.84;56.53;100331.51;;;;-49
2019/10/05 09:36:02;;;;;;;1.38;1.28;;;;;;;19.84;56.50;100332.18;;;;-50
2019/10/05 09:39:06;;;;;;;1.72;1.33;;;;;;;19.85;56.52;100337.31;;;;-51
2019/10/05 09:42:02;;;;;;;1.58;1.27;;;;;;;19.84;56.49;100332.17;;;;-51
2019/10/05 09:45:02;;;;;;;2.36;1.19;;;;;;;19.85;56.46;100332.73;;;;-52
2019/10/05 09:48:02;;;;;;;1.63;1.24;;;;;;;19.86;56.45;100336.95;;;;-50
2019/10/05 09:51:02;;;;;;;1.37;1.20;;;;;;;19.85;56.46;100342.68;;;;-53
2019/10/05 09:54:02;;;;;;;1.63;1.11;;;;;;;19.86;56.45;100344.16;;;;-51
2019/10/05 09:57:02;;;;;;;1.39;1.29;;;;;;;19.86;56.47;100348.85;;;;-51
2019/10/05 10:00:02;;;;;;;1.25;1.11;;;;;;;19.86;56.42;100350.53;;;;-51
2019/10/05 10:03:01;;;;;;;1.43;1.26;;;;;;;19.85;56.45;100356.52;;;;-49
2019/10/05 10:06:01;;;;;;;2.43;1.31;;;;;;;19.86;56.44;100360.25;;;;-51
2019/10/05 10:09:04;;;;;;;1.62;1.13;;;;;;;19.85;56.50;100364.56;;;;-51
2019/10/05 10:12:02;;;;;;;2.09;1.20;;;;;;;19.89;56.34;100372.10;;;;-49
2019/10/05 10:15:02;;;;;;;2.57;1.17;;;;;;;19.87;56.25;100374.94;;;;-49
2019/10/05 10:18:02;;;;;;;2.21;1.20;;;;;;;19.86;56.17;100373.92;;;;-49
2019/10/05 10:21:02;;;;;;;2.79;1.27;;;;;;;19.85;56.11;100376.30;;;;-50
2019/10/05 10:24:02;;;;;;;1.77;1.22;;;;;;;19.84;56.05;100373.80;;;;-49
2019/10/05 10:27:02;;;;;;;2.63;1.19;;;;;;;19.83;56.00;100375.98;;;;-49
2019/10/05 10:30:02;;;;;;;1.37;1.19;;;;;;;19.83;55.99;100376.05;;;;-49
2019/10/05 10:33:02;;;;;;;1.34;1.20;;;;;;;19.82;55.95;100381.03;;;;-49
2019/10/05 10:36:02;;;;;;;1.50;1.10;;;;;;;19.81;55.92;100385.52;;;;-49
2019/10/05 10:39:02;;;;;;;1.63;1.09;;;;;;;19.81;55.85;100392.89;;;;-49
2019/10/05 10:42:02;;;;;;;1.06;1.03;;;;;;;19.79;55.85;100389.11;;;;-50
2019/10/05 10:45:02;;;;;;;3.51;1.27;;;;;;;19.79;55.87;100395.98;;;;-49
2019/10/05 10:48:02;;;;;;;1.64;1.20;;;;;;;19.79;55.81;100397.49;;;;-49
2019/10/05 10:51:02;;;;;;;2.25;1.31;;;;;;;19.77;55.80;100399.76;;;;-50
2019/10/05 10:54:02;;;;;;;1.14;1.00;;;;;;;19.78;55.79;100406.84;;;;-49
2019/10/05 10:57:02;;;;;;;1.39;1.20;;;;;;;19.78;55.76;100409.85;;;;-49
2019/10/05 11:00:02;;;;;;;1.68;1.11;;;;;;;19.76;55.73;100408.03;;;;-49
2019/10/05 11:03:02;;;;;;;1.19;1.10;;;;;;;19.76;55.70;100412.05;;;;-50
2019/10/05 11:06:02;;;;;;;1.02;1.00;;;;;;;19.75;55.71;100413.85;;;;-50
2019/10/05 11:09:02;;;;;;;1.17;1.07;;;;;;;19.75;55.68;100424.13;;;;-49
2019/10/05 11:12:02;;;;;;;1.24;1.14;;;;;;;19.75;55.73;100430.11;;;;-50
2019/10/05 11:15:02;;;;;;;2.43;1.18;;;;;;;19.78;55.64;100423.36;;;;-52
2019/10/05 11:18:02;;;;;;;1.37;1.09;;;;;;;19.78;55.61;100422.25;;;;-52
2019/10/05 11:21:01;;;;;;;1.39;1.20;;;;;;;19.80;55.60;100428.14;;;;-50
2019/10/05 11:24:02;;;;;;;1.18;1.08;;;;;;;19.78;55.56;100431.14;;;;-50
2019/10/05 11:27:02;;;;;;;1.07;1.03;;;;;;;19.76;55.59;100431.83;;;;-50
2019/10/05 11:30:02;;;;;;;1.29;1.19;;;;;;;19.76;55.59;100430.88;;;;-50
2019/10/05 11:33:02;;;;;;;1.71;1.11;;;;;;;19.75;55.57;100429.77;;;;-50
2019/10/05 11:36:02;;;;;;;1.20;1.10;;;;;;;19.75;55.57;100431.34;;;;-50
2019/10/05 11:39:02;;;;;;;1.76;1.10;;;;;;;19.74;55.53;100430.91;;;;-50
2019/10/05 11:42:02;;;;;;;1.65;1.06;;;;;;;19.73;55.52;100438.83;;;;-50
2019/10/05 11:45:02;;;;;;;1.23;1.13;;;;;;;19.72;55.53;100441.13;;;;-50
2019/10/05 11:48:02;;;;;;;1.55;0.96;;;;;;;19.73;55.50;100453.20;;;;-50
2019/10/05 11:51:02;;;;;;;0.93;0.91;;;;;;;19.73;55.52;100454.44;;;;-49
2019/10/05 11:54:02;;;;;;;1.36;1.14;;;;;;;19.76;55.48;100454.45;;;;-49
2019/10/05 11:57:02;;;;;;;1.70;1.10;;;;;;;19.76;55.50;100462.05;;;;-51
2019/10/05 12:00:01;;;;;;;1.95;1.07;;;;;;;19.75;55.53;100461.27;;;;-51
2019/10/05 12:03:01;;;;;;;1.53;1.10;;;;;;;19.76;55.56;100466.67;;;;-53
2019/10/05 12:06:01;;;;;;;1.26;1.16;;;;;;;19.77;55.55;100470.07;;;;-50
2019/10/05 12:09:02;;;;;;;2.41;1.04;;;;;;;19.78;55.59;100471.63;;;;-51
2019/10/05 12:12:02;;;;;;;2.03;1.09;;;;;;;19.78;55.63;100474.70;;;;-49
2019/10/05 12:15:02;;;;;;;2.63;1.10;;;;;;;19.77;55.60;100476.17;;;;-50
2019/10/05 12:18:01;;;;;;;1.79;1.03;;;;;;;19.78;55.63;100476.98;;;;-51
2019/10/05 12:21:02;;;;;;;1.61;1.10;;;;;;;19.79;55.66;100479.44;;;;-50
2019/10/05 12:24:02;;;;;;;1.29;1.08;;;;;;;19.79;55.67;100482.45;;;;-50
2019/10/05 12:27:02;;;;;;;1.05;0.99;;;;;;;19.79;55.67;100485.14;;;;-50
2019/10/05 12:30:02;;;;;;;1.42;1.07;;;;;;;19.81;55.68;100486.56;;;;-49
2019/10/05 12:33:02;;;;;;;1.17;1.07;;;;;;;19.81;55.68;100489.68;;;;-50
2019/10/05 12:36:02;;;;;;;1.95;1.15;;;;;;;19.81;55.67;100483.72;;;;-52
2019/10/05 12:39:02;;;;;;;1.93;1.23;;;;;;;19.83;55.68;100486.25;;;;-52
2019/10/05 12:42:02;;;;;;;1.59;1.09;;;;;;;19.83;55.66;100491.68;;;;-51
2019/10/05 12:45:02;;;;;;;2.77;1.21;;;;;;;19.82;55.59;100490.12;;;;-52
2019/10/05 12:48:02;;;;;;;2.53;1.13;;;;;;;19.81;55.62;100488.84;;;;-51
2019/10/05 12:51:02;;;;;;;1.80;1.10;;;;;;;19.81;55.55;100496.78;;;;-51
2019/10/05 12:54:02;;;;;;;2.15;1.19;;;;;;;19.80;55.53;100497.69;;;;-52
2019/10/05 12:57:02;;;;;;;5.01;1.35;;;;;;;19.80;55.52;100496.01;;;;-55
2019/10/05 13:00:02;;;;;;;1.73;1.17;;;;;;;19.80;55.50;100495.67;;;;-55
2019/10/05 13:03:02;;;;;;;1.78;1.22;;;;;;;19.80;55.59;100497.08;;;;-50
2019/10/05 13:06:02;;;;;;;1.78;1.30;;;;;;;19.82;55.58;100502.46;;;;-51
2019/10/05 13:09:02;;;;;;;1.66;1.38;;;;;;;19.81;55.57;100507.17;;;;-51
2019/10/05 13:12:02;;;;;;;2.41;1.30;;;;;;;19.79;55.58;100506.25;;;;-51
2019/10/05 13:15:02;;;;;;;2.31;1.30;;;;;;;19.80;55.56;100509.48;;;;-51
2019/10/05 13:18:01;;;;;;;1.43;1.30;;;;;;;19.77;55.60;100512.97;;;;-51
2019/10/05 13:21:02;;;;;;;2.25;1.32;;;;;;;19.77;55.57;100516.83;;;;-51
2019/10/05 13:24:02;;;;;;;4.61;1.65;;;;;;;19.76;55.56;100513.43;;;;-51
2019/10/05 13:27:02;;;;;;;3.50;1.31;;;;;;;19.76;55.52;100521.47;;;;-51
2019/10/05 13:30:02;;;;;;;1.80;1.33;;;;;;;19.76;55.53;100519.96;;;;-51
2019/10/05 13:33:01;;;;;;;1.52;1.40;;;;;;;19.75;55.49;100527.80;;;;-51
2019/10/05 13:36:01;;;;;;;2.09;1.24;;;;;;;19.75;55.48;100535.34;;;;-52
2019/10/05 13:39:02;;;;;;;1.45;1.26;;;;;;;19.75;55.49;100534.67;;;;-51
2019/10/05 13:42:02;;;;;;;1.53;1.40;;;;;;;19.75;55.47;100535.34;;;;-51
2019/10/05 13:45:02;;;;;;;1.93;1.46;;;;;;;19.75;55.43;100532.89;;;;-51
2019/10/05 13:48:02;;;;;;;1.42;1.31;;;;;;;19.75;55.45;100541.43;;;;-50
2019/10/05 13:51:01;;;;;;;2.38;1.27;;;;;;;19.73;55.46;100534.23;;;;-51
2019/10/05 13:54:01;;;;;;;1.97;1.25;;;;;;;19.73;55.45;100536.08;;;;-51
2019/10/05 13:57:01;;;;;;;1.94;1.39;;;;;;;19.72;55.42;100539.89;;;;-51
2019/10/05 14:00:02;;;;;;;1.99;1.31;;;;;;;19.72;55.44;100542.20;;;;-51
2019/10/05 14:03:02;;;;;;;2.17;1.26;;;;;;;19.72;55.45;100549.55;;;;-51
2019/10/05 14:06:02;;;;;;;1.53;1.30;;;;;;;19.73;55.41;100541.51;;;;-51
2019/10/05 14:09:01;;;;;;;3.17;1.45;;;;;;;19.74;55.39;100529.76;;;;-51
2019/10/05 14:12:01;;;;;;;1.99;1.30;;;;;;;19.73;55.36;100537.59;;;;-52
2019/10/05 14:15:02;;;;;;;2.39;1.25;;;;;;;19.72;55.36;100546.77;;;;-52
2019/10/05 14:18:01;;;;;;;2.53;1.46;;;;;;;19.78;55.33;100556.14;;;;-52
2019/10/05 14:21:02;;;;;;;2.40;1.30;;;;;;;19.76;55.40;100566.44;;;;-48
2019/10/05 14:24:02;;;;;;;2.78;1.20;;;;;;;19.76;55.46;100571.97;;;;-51
2019/10/05 14:27:02;;;;;;;1.89;1.30;;;;;;;19.77;55.51;100575.71;;;;-51
2019/10/05 14:30:01;;;;;;;1.96;1.43;;;;;;;19.79;55.52;100585.79;;;;-52
2019/10/05 14:33:01;;;;;;;1.95;1.29;;;;;;;19.82;55.59;100581.12;;;;-51
2019/10/05 14:36:01;;;;;;;4.87;1.44;;;;;;;19.86;55.53;100577.19;;;;-52
2019/10/05 14:39:02;;;;;;;5.07;1.46;;;;;;;19.87;55.65;100581.69;;;;-50
2019/10/05 14:42:02;;;;;;;3.35;1.62;;;;;;;19.86;55.79;100592.70;;;;-49
2019/10/05 14:45:02;;;;;;;5.78;1.49;;;;;;;19.89;55.94;100599.27;;;;-50
2019/10/05 14:48:01;;;;;;;6.43;1.93;;;;;;;19.92;55.79;100601.80;;;;-53
2019/10/05 14:51:02;;;;;;;5.34;1.68;;;;;;;19.90;56.01;100600.20;;;;-53
2019/10/05 14:54:01;;;;;;;5.97;1.83;;;;;;;19.89;56.08;100608.53;;;;-49
2019/10/05 14:57:02;;;;;;;4.22;1.72;;;;;;;19.94;56.02;100613.18;;;;-49
2019/10/05 15:00:02;;;;;;;6.63;1.51;;;;;;;19.95;56.08;100608.66;;;;-48
2019/10/05 15:03:02;;;;;;;8.23;1.79;;;;;;;19.96;56.09;100612.22;;;;-46
2019/10/05 15:06:02;;;;;;;3.89;1.60;;;;;;;19.98;56.16;100615.67;;;;-50
2019/10/05 15:09:01;;;;;;;6.99;1.72;;;;;;;19.99;56.24;100621.32;;;;-50
2019/10/05 15:12:01;;;;;;;7.53;1.70;;;;;;;19.97;56.26;100630.08;;;;-50
2019/10/05 15:15:01;;;;;;;5.47;1.58;;;;;;;19.96;56.19;100637.08;;;;-51
2019/10/05 15:18:02;;;;;;;5.83;1.51;;;;;;;19.98;56.20;100640.91;;;;-58
2019/10/05 15:21:02;;;;;;;5.97;1.82;;;;;;;19.96;56.29;100641.53;;;;-57
2019/10/05 15:24:02;;;;;;;7.29;1.79;;;;;;;19.97;56.36;100642.48;;;;-52
2019/10/05 15:27:01;;;;;;;5.43;1.72;;;;;;;19.99;56.36;100643.78;;;;-48
2019/10/05 15:30:01;;;;;;;2.49;1.61;;;;;;;20.00;56.33;100644.33;;;;-50
2019/10/05 15:33:01;;;;;;;4.24;1.70;;;;;;;19.99;56.36;100651.73;;;;-52
2019/10/05 15:36:02;;;;;;;4.63;1.69;;;;;;;20.02;56.40;100655.82;;;;-50
2019/10/05 15:39:02;;;;;;;3.30;1.71;;;;;;;20.03;56.34;100654.19;;;;-52
2019/10/05 15:42:02;;;;;;;4.09;1.79;;;;;;;20.06;56.34;100654.05;;;;-53
2019/10/05 15:45:02;;;;;;;5.12;1.91;;;;;;;20.10;56.20;100655.81;;;;-49
2019/10/05 15:48:02;;;;;;;4.19;1.69;;;;;;;20.08;56.21;100650.52;;;;-52
2019/10/05 15:51:01;;;;;;;4.20;1.78;;;;;;;20.03;56.17;100656.88;;;;-52
2019/10/05 15:54:01;;;;;;;5.20;1.80;;;;;;;20.01;56.08;100653.67;;;;-52
2019/10/05 15:57:01;;;;;;;5.41;1.74;;;;;;;20.00;56.06;100655.23;;;;-52
2019/10/05 16:00:01;;;;;;;5.62;1.75;;;;;;;19.99;55.97;100660.84;;;;-52
2019/10/05 16:03:02;;;;;;;6.29;1.83;;;;;;;19.97;55.95;100669.24;;;;-52
2019/10/05 16:06:02;;;;;;;5.03;1.76;;;;;;;19.96;55.94;100668.55;;;;-52
2019/10/05 16:09:03;;;;;;;2.81;1.73;;;;;;;19.94;55.93;100672.80;;;;-52
2019/10/05 16:12:01;;;;;;;2.83;1.70;;;;;;;19.94;55.89;100676.71;;;;-52
2019/10/05 16:15:01;;;;;;;4.74;1.84;;;;;;;19.93;55.87;100679.31;;;;-52
2019/10/05 16:18:01;;;;;;;3.48;1.69;;;;;;;19.92;55.85;100682.28;;;;-53
2019/10/05 16:21:02;;;;;;;2.25;1.71;;;;;;;19.91;55.82;100695.01;;;;-52
2019/10/05 16:24:02;;;;;;;1.68;1.57;;;;;;;19.90;55.81;100693.11;;;;-53
2019/10/05 16:27:02;;;;;;;4.11;1.70;;;;;;;19.90;55.78;100684.06;;;;-52
2019/10/05 16:30:01;;;;;;;3.83;1.69;;;;;;;19.91;55.65;100688.24;;;;-52
2019/10/05 16:33:01;;;;;;;2.89;1.58;;;;;;;19.91;55.65;100690.48;;;;-52
2019/10/05 16:36:01;;;;;;;3.24;1.70;;;;;;;19.89;55.65;100694.81;;;;-53
2019/10/05 16:39:01;;;;;;;3.45;1.81;;;;;;;19.88;55.68;100700.73;;;;-52
2019/10/05 16:42:02;;;;;;;3.42;1.75;;;;;;;19.87;55.66;100711.86;;;;-52
2019/10/05 16:45:02;;;;;;;3.28;1.67;;;;;;;19.87;55.65;100715.34;;;;-52
2019/10/05 16:48:01;;;;;;;2.02;1.52;;;;;;;19.86;55.66;100713.11;;;;-52
2019/10/05 16:51:01;;;;;;;2.67;1.60;;;;;;;19.84;55.66;100709.27;;;;-56